Time;durP1;ratioP1;P1;durP2;ratioP2;P2;SDS_P1;SDS_P2;PMS_P1;PMS_P2;Temp;Humidity;BMP_temperature;BMP_pressure;BME280_temperature;BME280_humidity;BME280_pressure;Samples;Min_cycle;Max_cycle;Signal;HPM_P1;HPM_P2
2022/12/12 00:01:31;;;;;;;33.47;18.17;;;-0.70;99.90;;;;;;5015149;28;20400;-72
2022/12/12 00:03:57;;;;;;;35.67;17.90;;;-0.70;99.90;;;;;;5015362;28;20181;-74
2022/12/12 00:06:23;;;;;;;33.90;17.73;;;-0.70;99.90;;;;;;5015096;28;20495;-74
2022/12/12 00:08:50;;;;;;;33.40;16.87;;;-0.70;99.90;;;;;;5015147;28;20462;-74
2022/12/12 00:11:15;;;;;;;32.43;17.93;;;-0.70;99.90;;;;;;5015161;28;20456;-74
2022/12/12 00:13:41;;;;;;;39.40;17.07;;;-0.80;99.90;;;;;;5015120;28;20839;-74
2022/12/12 00:16:08;;;;;;;34.57;16.00;;;-0.80;99.90;;;;;;5014746;28;20616;-74
2022/12/12 00:18:35;;;;;;;34.30;16.77;;;-0.80;99.90;;;;;;5013958;28;20396;-74
2022/12/12 00:21:03;;;;;;;33.73;16.00;;;-0.80;99.90;;;;;;5015005;28;20384;-73
2022/12/12 00:23:29;;;;;;;36.90;15.83;;;-0.80;99.90;;;;;;4997274;28;20420;-74
2022/12/12 00:26:00;;;;;;;34.00;16.73;;;-0.90;99.90;;;;;;5014910;28;20472;-75
2022/12/12 00:28:26;;;;;;;30.30;17.80;;;-0.80;99.90;;;;;;5014414;28;20175;-75
2022/12/12 00:30:52;;;;;;;28.77;15.67;;;-0.80;99.90;;;;;;5014426;28;20984;-73
2022/12/12 00:33:18;;;;;;;23.33;14.63;;;-0.90;99.90;;;;;;5014902;28;20415;-73
2022/12/12 00:35:44;;;;;;;30.50;15.87;;;-0.90;99.90;;;;;;5015129;28;20265;-73
2022/12/12 00:38:10;;;;;;;34.47;15.10;;;-0.90;99.90;;;;;;5014487;28;20429;-74
2022/12/12 00:40:36;;;;;;;33.07;15.30;;;-0.90;99.90;;;;;;5014393;28;20404;-74
2022/12/12 00:43:02;;;;;;;24.00;14.30;;;-0.90;99.90;;;;;;4996546;28;20617;-73
2022/12/12 00:45:27;;;;;;;26.63;14.47;;;-0.90;99.90;;;;;;5014528;28;20329;-72
2022/12/12 00:47:53;;;;;;;28.53;14.53;;;-0.90;99.90;;;;;;5014514;28;20458;-74
2022/12/12 00:50:18;;;;;;;29.03;14.20;;;-1.00;99.90;;;;;;5014441;28;20245;-73
2022/12/12 00:52:44;;;;;;;30.73;15.20;;;-0.90;99.90;;;;;;5014326;28;20206;-73
2022/12/12 00:55:11;;;;;;;26.37;13.40;;;-1.00;99.90;;;;;;5014484;28;20183;-74
2022/12/12 00:57:37;;;;;;;25.90;13.73;;;-1.00;99.90;;;;;;5014410;28;20209;-73
2022/12/12 01:00:08;;;;;;;33.30;14.50;;;-1.00;99.90;;;;;;5014485;28;20413;-74
2022/12/12 01:02:33;;;;;;;25.53;14.10;;;-1.10;99.90;;;;;;5014239;28;20507;-74
2022/12/12 01:04:59;;;;;;;28.17;16.03;;;-1.10;99.90;;;;;;5013877;28;20506;-73
2022/12/12 01:07:24;;;;;;;33.83;12.83;;;-1.10;99.90;;;;;;5014306;28;20191;-73
2022/12/12 01:09:50;;;;;;;23.27;12.90;;;-1.10;99.90;;;;;;5014072;28;20199;-72
2022/12/12 01:12:15;;;;;;;26.30;12.90;;;-1.10;99.90;;;;;;5013832;28;20230;-74
2022/12/12 01:14:41;;;;;;;26.57;13.57;;;-1.10;99.90;;;;;;5013680;28;20209;-74
2022/12/12 01:17:07;;;;;;;25.43;13.03;;;-1.20;99.90;;;;;;5013900;28;20186;-75
2022/12/12 01:19:32;;;;;;;27.97;13.27;;;-1.30;99.90;;;;;;5014136;28;20182;-74
2022/12/12 01:21:58;;;;;;;33.63;14.53;;;-1.30;99.90;;;;;;5013635;28;20582;-74
2022/12/12 01:24:23;;;;;;;24.37;13.03;;;-1.30;99.90;;;;;;5013310;28;20185;-74
2022/12/12 01:26:50;;;;;;;22.93;10.87;;;-1.30;99.90;;;;;;5013127;28;20218;-74
2022/12/12 01:29:15;;;;;;;22.87;12.00;;;-1.30;99.90;;;;;;5013081;28;20218;-74
2022/12/12 01:31:41;;;;;;;19.60;12.40;;;-1.30;99.90;;;;;;5013022;28;20977;-74
2022/12/12 01:34:06;;;;;;;16.40;11.00;;;-1.40;99.90;;;;;;5013590;28;20189;-74
2022/12/12 01:36:32;;;;;;;21.97;13.00;;;-1.40;99.90;;;;;;5013288;28;20697;-73
2022/12/12 01:38:59;;;;;;;23.57;12.73;;;-1.40;99.90;;;;;;5013793;28;20221;-74
2022/12/12 01:41:25;;;;;;;19.50;11.73;;;-1.40;99.90;;;;;;5014529;28;20194;-74
2022/12/12 01:43:51;;;;;;;21.90;11.70;;;-1.40;99.90;;;;;;5014818;28;20398;-74
2022/12/12 01:46:35;;;;;;;23.20;10.90;;;-1.40;99.90;;;;;;5014270;28;20199;-70
2022/12/12 01:49:27;;;;;;;24.47;12.43;;;-1.40;99.90;;;;;;5010049;28;20230;-75
2022/12/12 01:51:57;;;;;;;20.13;11.70;;;-1.50;99.90;;;;;;4995074;28;20468;-74
2022/12/12 01:54:30;;;;;;;22.27;11.70;;;-1.40;99.90;;;;;;5012705;28;20770;-72
2022/12/12 01:56:58;;;;;;;28.83;14.10;;;-1.40;99.90;;;;;;5002216;28;20412;-73
2022/12/12 01:59:25;;;;;;;26.53;11.97;;;-1.50;99.90;;;;;;5012499;28;20418;-73
2022/12/12 03:32:41;;;;;;;22.37;9.53;;;-3.80;99.90;;;;;;5266864;23;20526;-74
2022/12/12 03:35:34;;;;;;;17.83;10.43;;;-3.80;99.90;;;;;;5010054;28;20396;-74
2022/12/12 03:38:17;;;;;;;17.47;10.20;;;-3.80;99.90;;;;;;5011652;28;20845;-75
2022/12/12 03:40:48;;;;;;;18.97;8.97;;;-3.90;99.90;;;;;;5017620;28;20437;-75
2022/12/12 03:43:26;;;;;;;20.00;9.70;;;-4.00;99.90;;;;;;5024925;28;20430;-75
2022/12/12 03:46:06;;;;;;;16.00;8.60;;;-4.00;99.90;;;;;;5033939;28;20396;-73
2022/12/12 03:48:41;;;;;;;24.53;9.77;;;-4.00;99.90;;;;;;5025613;28;20895;-75
2022/12/12 03:51:11;;;;;;;16.20;9.07;;;-4.00;99.90;;;;;;5011469;28;20421;-73
2022/12/12 03:54:11;;;;;;;21.20;9.47;;;-4.10;99.90;;;;;;5014710;28;20951;-74
2022/12/12 03:56:46;;;;;;;14.57;9.77;;;-4.10;99.90;;;;;;5010415;28;20455;-74
2022/12/12 03:59:18;;;;;;;19.80;9.70;;;-4.20;99.90;;;;;;5014260;28;20444;-74
2022/12/12 04:01:59;;;;;;;16.37;8.70;;;-4.20;99.90;;;;;;5014335;28;20438;-74
2022/12/12 04:04:45;;;;;;;18.73;10.00;;;-4.20;99.90;;;;;;5014680;28;20890;-74
2022/12/12 04:07:25;;;;;;;20.77;10.10;;;-4.20;99.90;;;;;;5014342;28;20414;-74
2022/12/12 04:12:59;;;;;;;20.07;9.50;;;-4.20;99.90;;;;;;5014621;28;20522;-74
2022/12/12 04:15:53;;;;;;;18.20;10.43;;;-4.20;99.90;;;;;;5014020;28;20425;-74
2022/12/12 04:18:25;;;;;;;19.27;11.23;;;-4.10;99.90;;;;;;5014354;28;20385;-72
2022/12/12 04:24:22;;;;;;;19.07;10.20;;;-4.10;99.90;;;;;;5015376;28;20853;-75
2022/12/12 04:26:58;;;;;;;36.77;11.97;;;-4.10;99.90;;;;;;5015322;28;20397;-74
2022/12/12 04:29:26;;;;;;;18.93;10.73;;;-4.10;99.90;;;;;;5014080;28;20429;-75
2022/12/12 04:32:11;;;;;;;24.20;10.80;;;-4.10;99.90;;;;;;5014635;28;20443;-74
2022/12/12 04:34:52;;;;;;;21.43;11.00;;;-4.10;99.90;;;;;;5014693;28;20764;-74
2022/12/12 04:37:22;;;;;;;23.03;10.77;;;-4.00;99.90;;;;;;5014136;28;20403;-75
2022/12/12 04:39:52;;;;;;;26.87;11.30;;;-4.10;99.90;;;;;;5013732;28;20942;-74
2022/12/12 04:42:23;;;;;;;24.00;12.50;;;-4.10;99.90;;;;;;5013456;28;20437;-74
2022/12/12 04:44:52;;;;;;;19.23;11.07;;;-4.10;99.90;;;;;;5013777;28;20412;-74
2022/12/12 04:47:20;;;;;;;22.40;11.00;;;-4.00;99.90;;;;;;5013443;28;20471;-74
2022/12/12 04:49:48;;;;;;;33.53;19.00;;;-4.00;99.90;;;;;;5013626;28;21049;-73
2022/12/12 04:52:16;;;;;;;32.73;16.23;;;-3.90;99.90;;;;;;5012857;28;20413;-74
2022/12/12 04:55:14;;;;;;;32.77;11.20;;;-3.90;99.90;;;;;;5013481;28;20513;-74
2022/12/12 04:57:46;;;;;;;23.60;10.87;;;-3.90;99.90;;;;;;5013640;28;20786;-75
2022/12/12 05:00:13;;;;;;;29.10;13.93;;;-3.90;99.90;;;;;;5013480;28;20428;-76
2022/12/12 05:03:02;;;;;;;25.43;12.00;;;-3.90;99.90;;;;;;5012669;28;20560;-74
2022/12/12 05:05:35;;;;;;;26.93;14.10;;;-3.80;99.90;;;;;;5013120;28;20404;-74
2022/12/12 05:08:32;;;;;;;24.23;12.10;;;-3.80;99.90;;;;;;5013067;28;20472;-74
2022/12/12 05:11:03;;;;;;;23.73;13.20;;;-3.70;99.90;;;;;;5008193;28;20586;-75
2022/12/12 05:13:31;;;;;;;26.07;13.30;;;-3.70;99.90;;;;;;5012860;28;20941;-74
2022/12/12 05:15:58;;;;;;;21.87;12.43;;;-3.70;99.90;;;;;;5013210;28;20437;-75
2022/12/12 05:18:24;;;;;;;26.53;12.83;;;-3.60;99.90;;;;;;5013115;28;20390;-74
2022/12/12 05:20:49;;;;;;;25.53;12.60;;;-3.50;99.90;;;;;;5013200;28;20413;-74
2022/12/12 05:23:15;;;;;;;29.73;14.20;;;-3.50;99.90;;;;;;5012913;28;20589;-74
2022/12/12 05:25:40;;;;;;;23.97;13.30;;;-3.50;99.90;;;;;;5013157;28;20661;-74
2022/12/12 05:28:06;;;;;;;28.90;14.37;;;-3.40;99.90;;;;;;5012875;28;20193;-75
2022/12/12 05:30:32;;;;;;;27.30;13.50;;;-3.40;99.90;;;;;;5012660;28;20238;-75
2022/12/12 05:32:58;;;;;;;37.70;15.70;;;-3.40;99.90;;;;;;5012676;28;20452;-74
2022/12/12 05:35:24;;;;;;;21.23;13.00;;;-3.40;99.90;;;;;;5012729;28;20262;-74
2022/12/12 05:37:50;;;;;;;30.10;15.07;;;-3.40;99.90;;;;;;5012607;28;20826;-73
2022/12/12 05:40:16;;;;;;;28.33;13.93;;;-3.40;99.90;;;;;;5012647;28;20182;-74
2022/12/12 05:42:41;;;;;;;27.63;13.83;;;-3.40;99.90;;;;;;5012275;28;20466;-73
2022/12/12 05:45:08;;;;;;;26.30;13.80;;;-3.30;99.90;;;;;;5012221;28;20392;-74
2022/12/12 05:47:34;;;;;;;24.73;14.57;;;-3.30;99.90;;;;;;4995043;28;20240;-74
2022/12/12 05:50:00;;;;;;;25.10;14.27;;;-3.20;99.90;;;;;;5012029;28;20471;-74
2022/12/12 05:52:26;;;;;;;33.60;15.30;;;-3.20;99.90;;;;;;5012272;28;20492;-74
2022/12/12 05:54:52;;;;;;;26.90;15.03;;;-3.10;99.90;;;;;;5012236;28;20191;-74
2022/12/12 05:57:17;;;;;;;27.73;16.50;;;-3.10;99.90;;;;;;5012263;28;20394;-74
2022/12/12 05:59:44;;;;;;;27.97;14.90;;;-3.10;99.90;;;;;;5012343;28;20425;-74
2022/12/12 06:02:10;;;;;;;31.40;14.47;;;-3.00;99.90;;;;;;5011892;28;20206;-74
2022/12/12 06:04:36;;;;;;;29.63;15.63;;;-3.00;99.90;;;;;;5012177;28;20514;-74
2022/12/12 06:07:01;;;;;;;28.93;13.83;;;-3.00;99.90;;;;;;5012318;28;20689;-74
2022/12/12 06:09:27;;;;;;;32.60;15.53;;;-3.00;99.90;;;;;;5012310;28;20202;-73
2022/12/12 06:11:52;;;;;;;34.03;15.67;;;-2.90;99.90;;;;;;5012209;28;20194;-74
2022/12/12 06:14:18;;;;;;;36.60;16.97;;;-2.80;99.90;;;;;;5011541;28;20246;-74
2022/12/12 06:16:44;;;;;;;36.43;18.20;;;-2.80;99.90;;;;;;5012097;28;20650;-72
2022/12/12 06:19:10;;;;;;;38.80;15.63;;;-2.70;99.90;;;;;;5023064;28;20646;-74
2022/12/12 06:21:36;;;;;;;29.30;16.07;;;-2.70;99.90;;;;;;5026667;28;20693;-75
2022/12/12 06:24:04;;;;;;;30.30;15.80;;;-2.60;99.90;;;;;;5030491;28;20391;-74
2022/12/12 06:26:30;;;;;;;36.30;18.30;;;-2.60;99.90;;;;;;5025657;28;20405;-74
2022/12/12 06:28:56;;;;;;;31.17;16.57;;;-2.60;99.90;;;;;;5010684;28;20416;-73
2022/12/12 06:31:23;;;;;;;35.90;16.63;;;-2.60;99.90;;;;;;4992110;28;20537;-74
2022/12/12 06:33:48;;;;;;;32.53;16.90;;;-2.60;99.90;;;;;;5010999;28;20179;-73
2022/12/12 06:36:22;;;;;;;28.00;14.13;;;-2.60;99.90;;;;;;5011037;28;20396;-74
2022/12/12 06:38:51;;;;;;;34.20;15.90;;;-2.60;99.90;;;;;;5011735;28;20182;-74
2022/12/12 06:41:17;;;;;;;32.57;16.53;;;-2.60;99.90;;;;;;5011509;28;21346;-74
2022/12/12 06:43:43;;;;;;;35.30;16.60;;;-2.50;99.90;;;;;;5011808;28;20396;-74
2022/12/12 06:46:16;;;;;;;34.33;18.03;;;-2.60;99.90;;;;;;5011362;28;20783;-74
2022/12/12 06:48:42;;;;;;;32.03;18.87;;;-2.60;99.90;;;;;;5011679;28;20188;-73
2022/12/12 06:51:11;;;;;;;37.37;20.47;;;-2.50;99.90;;;;;;5011128;28;20448;-74
2022/12/12 06:53:37;;;;;;;40.47;20.50;;;-2.50;99.90;;;;;;5011630;28;20435;-74
2022/12/12 06:56:14;;;;;;;39.57;18.60;;;-2.40;99.90;;;;;;5011820;28;20884;-71
2022/12/12 06:58:40;;;;;;;36.40;17.30;;;-2.40;99.90;;;;;;5011522;28;20177;-73
2022/12/12 07:01:06;;;;;;;33.73;18.20;;;-2.40;99.90;;;;;;5011248;28;20796;-72
2022/12/12 07:03:32;;;;;;;35.80;17.67;;;-2.40;99.90;;;;;;5011585;28;20178;-73
2022/12/12 07:05:58;;;;;;;35.60;17.53;;;-2.30;99.90;;;;;;5011431;28;20390;-71
2022/12/12 07:08:24;;;;;;;37.70;19.73;;;-2.30;99.90;;;;;;5011219;28;20441;-73
2022/12/12 07:10:50;;;;;;;39.27;20.00;;;-2.30;99.90;;;;;;5011185;28;20440;-73
2022/12/12 07:13:15;;;;;;;38.13;18.77;;;-2.20;99.90;;;;;;5011219;28;20233;-73
2022/12/12 07:15:46;;;;;;;41.47;19.00;;;-2.20;99.90;;;;;;5011173;28;20285;-72
2022/12/12 07:18:13;;;;;;;30.17;18.90;;;-2.10;99.90;;;;;;5010864;28;20182;-72
2022/12/12 07:20:43;;;;;;;46.30;21.37;;;-2.10;99.90;;;;;;5011121;28;20487;-72
2022/12/12 07:23:08;;;;;;;40.63;18.90;;;-2.10;99.90;;;;;;5010819;28;20395;-73
2022/12/12 07:25:41;;;;;;;38.57;19.30;;;-2.10;99.90;;;;;;5010970;28;20989;-72
2022/12/12 07:28:09;;;;;;;34.07;17.67;;;-2.10;99.90;;;;;;5014678;28;20691;-73
2022/12/12 07:30:41;;;;;;;37.67;18.03;;;-2.00;99.90;;;;;;5014661;28;20555;-71
2022/12/12 07:33:07;;;;;;;35.77;19.10;;;-2.00;99.90;;;;;;5014547;28;20443;-72
2022/12/12 07:35:33;;;;;;;34.10;17.50;;;-1.90;99.90;;;;;;5014767;28;20769;-73
2022/12/12 07:37:59;;;;;;;44.83;19.30;;;-1.90;99.90;;;;;;5014859;28;20390;-72
2022/12/12 07:40:24;;;;;;;33.13;17.63;;;-1.90;99.90;;;;;;5014449;28;20783;-73
2022/12/12 07:42:50;;;;;;;32.63;17.60;;;-2.00;99.90;;;;;;5014758;28;20211;-73
2022/12/12 07:45:15;;;;;;;40.83;17.53;;;-2.00;99.90;;;;;;5014415;28;20240;-73
2022/12/12 07:47:41;;;;;;;35.10;18.17;;;-1.90;99.90;;;;;;5014847;28;20627;-73
2022/12/12 07:50:07;;;;;;;38.43;19.40;;;-1.90;99.90;;;;;;5014238;28;20224;-73
2022/12/12 07:52:33;;;;;;;34.60;19.10;;;-2.00;99.90;;;;;;5014485;28;20195;-73
2022/12/12 07:54:58;;;;;;;32.20;17.83;;;-1.90;99.90;;;;;;5014313;28;20450;-73
2022/12/12 07:57:24;;;;;;;40.00;19.63;;;-1.80;99.90;;;;;;5014407;28;20639;-73
2022/12/12 07:59:49;;;;;;;35.13;19.27;;;-1.80;99.90;;;;;;5014415;28;20705;-74
2022/12/12 08:02:15;;;;;;;34.67;18.80;;;-1.90;99.90;;;;;;5013922;28;20692;-73
2022/12/12 08:04:40;;;;;;;39.47;19.30;;;-1.80;99.90;;;;;;5014301;28;20182;-73
2022/12/12 08:07:06;;;;;;;41.20;18.37;;;-1.80;99.90;;;;;;5014178;28;20672;-73
2022/12/12 08:09:31;;;;;;;33.90;18.77;;;-1.70;99.90;;;;;;5014236;28;20203;-72
2022/12/12 08:11:58;;;;;;;36.03;18.80;;;-1.70;99.90;;;;;;5013825;28;20232;-72
2022/12/12 08:14:25;;;;;;;32.93;18.77;;;-1.70;99.90;;;;;;5014269;28;20658;-73
2022/12/12 08:16:51;;;;;;;32.73;17.47;;;-1.60;99.90;;;;;;5014119;28;20400;-73
2022/12/12 08:19:16;;;;;;;37.37;17.60;;;-1.60;99.90;;;;;;5014053;28;21071;-72
2022/12/12 08:21:43;;;;;;;36.90;18.37;;;-1.60;99.90;;;;;;5013554;28;20400;-73
2022/12/12 08:24:11;;;;;;;32.17;18.53;;;-1.50;99.90;;;;;;5013947;28;20384;-72
2022/12/12 08:26:37;;;;;;;36.77;19.57;;;-1.50;99.90;;;;;;5013781;28;20403;-73
2022/12/12 08:29:03;;;;;;;34.10;19.20;;;-1.40;99.90;;;;;;5013632;28;20396;-72
2022/12/12 08:31:29;;;;;;;32.77;17.67;;;-1.40;99.90;;;;;;5013437;28;20202;-72
2022/12/12 08:33:55;;;;;;;34.57;17.80;;;-1.30;99.90;;;;;;5013686;28;20413;-73
2022/12/12 08:36:29;;;;;;;36.63;20.67;;;-1.30;99.90;;;;;;5013560;28;20173;-74
2022/12/12 08:38:55;;;;;;;32.17;18.60;;;-1.30;99.90;;;;;;5013080;28;20468;-73
2022/12/12 08:41:21;;;;;;;32.27;17.90;;;-1.20;99.90;;;;;;5015793;28;20416;-73
2022/12/12 08:43:48;;;;;;;34.10;17.30;;;-1.10;99.90;;;;;;5014918;28;20460;-73
2022/12/12 08:46:15;;;;;;;39.60;18.00;;;-1.10;99.90;;;;;;5013446;28;20445;-73
2022/12/12 08:48:41;;;;;;;39.93;18.70;;;-0.90;99.90;;;;;;5014080;28;20384;-74
2022/12/12 08:51:06;;;;;;;39.03;17.10;;;-0.80;99.90;;;;;;5012861;28;21020;-73
2022/12/12 08:53:32;;;;;;;34.80;17.67;;;-0.90;99.90;;;;;;5013435;28;20202;-72
2022/12/12 08:55:58;;;;;;;38.37;19.50;;;-0.80;99.90;;;;;;5013321;28;20523;-73
2022/12/12 08:58:23;;;;;;;34.63;18.43;;;-0.80;99.90;;;;;;5013162;28;20536;-72
2022/12/12 09:00:49;;;;;;;27.87;16.60;;;-0.70;99.90;;;;;;5013106;28;20549;-72
2022/12/12 09:03:14;;;;;;;31.70;18.37;;;-0.80;99.90;;;;;;5012827;28;20556;-72
2022/12/12 09:05:44;;;;;;;33.03;16.03;;;-0.70;99.90;;;;;;5013252;28;20261;-73
2022/12/12 09:08:11;;;;;;;37.47;19.07;;;-0.70;99.90;;;;;;5013153;28;20604;-72
2022/12/12 09:10:37;;;;;;;32.10;18.23;;;-0.60;99.90;;;;;;5012915;28;20969;-72
2022/12/12 09:13:04;;;;;;;33.80;18.43;;;-0.60;99.90;;;;;;5012984;28;20513;-73
2022/12/12 09:15:29;;;;;;;31.10;19.00;;;-0.60;99.90;;;;;;5012901;28;20841;-73
2022/12/12 09:17:55;;;;;;;29.80;17.53;;;-0.40;99.90;;;;;;5013109;28;20388;-73
2022/12/12 09:20:20;;;;;;;32.90;18.13;;;-0.30;99.90;;;;;;5012855;28;20632;-73
2022/12/12 09:22:46;;;;;;;30.43;16.27;;;-0.20;99.90;;;;;;5012747;28;20191;-72
2022/12/12 09:25:11;;;;;;;29.30;18.27;;;-0.20;99.90;;;;;;5012576;28;20175;-72
2022/12/12 09:27:37;;;;;;;31.93;17.57;;;-0.10;99.90;;;;;;5012408;28;20269;-73
2022/12/12 09:30:03;;;;;;;32.53;16.70;;;-0.20;99.90;;;;;;5012305;28;20580;-73
2022/12/12 09:32:28;;;;;;;37.00;19.77;;;-0.10;99.90;;;;;;4994788;28;20225;-72
2022/12/12 09:34:54;;;;;;;38.40;18.20;;;0.00;99.90;;;;;;5012599;28;20171;-72
2022/12/12 09:37:19;;;;;;;34.00;18.80;;;0.10;99.90;;;;;;5012625;28;20171;-72
2022/12/12 09:39:45;;;;;;;34.10;18.60;;;0.20;99.90;;;;;;5012880;28;20537;-73
2022/12/12 09:42:16;;;;;;;32.33;17.60;;;0.30;99.90;;;;;;5012051;28;20211;-72
2022/12/12 09:44:42;;;;;;;27.60;17.63;;;0.30;99.90;;;;;;5012565;28;20184;-72
2022/12/12 09:47:16;;;;;;;29.97;18.00;;;0.40;99.90;;;;;;5012335;28;20444;-73
2022/12/12 09:49:47;;;;;;;30.97;16.63;;;0.40;99.90;;;;;;5012217;28;20202;-74
2022/12/12 09:52:30;;;;;;;30.70;18.03;;;0.50;99.90;;;;;;5011932;28;20415;-73
2022/12/12 09:55:01;;;;;;;32.50;18.67;;;0.60;99.90;;;;;;5012467;28;20417;-74
2022/12/12 09:57:41;;;;;;;35.07;18.57;;;0.80;99.90;;;;;;4994449;28;20421;-72
2022/12/12 10:00:11;;;;;;;29.10;16.47;;;1.30;99.90;;;;;;5012176;28;20395;-73
2022/12/12 10:02:48;;;;;;;29.00;17.03;;;1.60;99.90;;;;;;5012122;28;20443;-73
2022/12/12 10:05:28;;;;;;;33.60;18.80;;;1.60;99.90;;;;;;5012362;28;20471;-73
2022/12/12 10:08:02;;;;;;;27.90;16.77;;;1.60;99.90;;;;;;5012153;28;20424;-74
2022/12/12 10:10:35;;;;;;;27.43;16.10;;;1.50;99.90;;;;;;5012049;28;20437;-72
2022/12/12 10:13:03;;;;;;;43.10;19.27;;;1.70;99.90;;;;;;5011706;28;20450;-72
2022/12/12 10:15:43;;;;;;;28.93;17.30;;;1.80;99.90;;;;;;5012600;28;20907;-73
2022/12/12 10:18:34;;;;;;;30.50;17.57;;;2.10;99.90;;;;;;5011916;28;20842;-72
2022/12/12 10:21:04;;;;;;;26.93;17.30;;;2.40;99.90;;;;;;5011913;28;20451;-73
2022/12/12 10:23:46;;;;;;;32.43;18.70;;;2.40;99.90;;;;;;5012019;28;20504;-73
2022/12/12 10:26:17;;;;;;;29.47;17.57;;;2.20;99.90;;;;;;5011845;28;20884;-71
2022/12/12 10:28:45;;;;;;;27.90;16.47;;;2.30;99.90;;;;;;5011904;28;20397;-74
2022/12/12 10:31:31;;;;;;;28.07;16.13;;;2.40;99.90;;;;;;5011291;28;20499;-73
2022/12/12 10:34:04;;;;;;;32.17;16.07;;;2.20;99.90;;;;;;5011712;28;20411;-73
2022/12/12 10:36:54;;;;;;;26.23;15.27;;;2.10;99.90;;;;;;5011815;28;20427;-73
2022/12/12 10:39:33;;;;;;;28.33;16.90;;;2.00;99.90;;;;;;5011504;28;20418;-73
2022/12/12 10:42:13;;;;;;;26.47;16.47;;;1.80;99.90;;;;;;5011460;28;20425;-74
2022/12/12 10:44:49;;;;;;;24.47;15.93;;;1.70;99.90;;;;;;5011710;28;20856;-73
2022/12/12 10:47:15;;;;;;;27.60;16.10;;;1.70;99.90;;;;;;5011608;28;20408;-73
2022/12/12 10:49:41;;;;;;;26.30;17.20;;;1.60;99.90;;;;;;5011609;28;20448;-73
2022/12/12 10:52:16;;;;;;;29.33;15.00;;;1.50;99.90;;;;;;5011287;28;20195;-73
2022/12/12 10:55:09;;;;;;;26.67;14.73;;;1.40;99.90;;;;;;5011947;28;20464;-72
2022/12/12 10:57:35;;;;;;;25.53;14.43;;;1.40;99.90;;;;;;5013587;28;20423;-73
2022/12/12 11:00:25;;;;;;;29.50;14.47;;;1.70;99.90;;;;;;4995999;28;20425;-72
2022/12/12 11:02:54;;;;;;;24.57;15.57;;;1.90;99.90;;;;;;5015739;28;20197;-73
2022/12/12 11:05:30;;;;;;;34.23;16.00;;;2.10;99.90;;;;;;5015158;28;20578;-73
2022/12/12 11:08:06;;;;;;;23.97;13.03;;;2.40;99.90;;;;;;5015530;28;20391;-73
2022/12/12 11:10:36;;;;;;;24.73;13.30;;;2.60;99.90;;;;;;4999665;28;20436;-73
2022/12/12 11:13:10;;;;;;;29.03;18.37;;;2.80;99.90;;;;;;5016404;28;20450;-72
2022/12/12 11:15:40;;;;;;;25.87;15.43;;;3.20;99.90;;;;;;5015171;28;20922;-73
2022/12/12 11:18:14;;;;;;;25.10;16.70;;;3.30;99.90;;;;;;5016600;28;20417;-73
2022/12/12 11:21:11;;;;;;;23.37;14.03;;;3.50;99.90;;;;;;4998988;28;20411;-73
2022/12/12 11:23:49;;;;;;;22.40;13.43;;;3.60;99.90;;;;;;4999433;28;20390;-73
2022/12/12 11:26:17;;;;;;;24.13;14.97;;;3.50;99.90;;;;;;4998388;28;20429;-73
2022/12/12 11:28:49;;;;;;;21.50;13.53;;;3.70;99.90;;;;;;5016979;28;20393;-73
2022/12/12 11:31:16;;;;;;;23.10;14.40;;;3.80;99.90;;;;;;4997391;28;20957;-72
2022/12/12 11:33:47;;;;;;;23.67;14.70;;;3.80;99.90;;;;;;4998266;28;20431;-72
2022/12/12 11:36:21;;;;;;;21.33;13.77;;;3.70;99.90;;;;;;5014961;28;20383;-72
2022/12/12 11:38:53;;;;;;;25.80;14.50;;;3.80;99.90;;;;;;5016867;28;20420;-72
2022/12/12 11:41:22;;;;;;;22.30;13.90;;;3.80;99.90;;;;;;4997831;28;20520;-73
2022/12/12 11:43:52;;;;;;;22.13;13.73;;;3.80;99.90;;;;;;4999053;28;20421;-73
2022/12/12 11:46:25;;;;;;;23.03;14.17;;;3.80;99.90;;;;;;5016881;28;20551;-72
2022/12/12 11:48:51;;;;;;;22.83;15.23;;;3.70;99.90;;;;;;4998922;28;20829;-72
2022/12/12 11:51:46;;;;;;;19.40;12.83;;;3.80;99.90;;;;;;5015187;28;20475;-72
2022/12/12 11:54:28;;;;;;;20.73;12.43;;;3.90;99.90;;;;;;4981675;28;20217;-73
2022/12/12 11:57:14;;;;;;;21.93;13.37;;;4.00;99.90;;;;;;5018185;28;20393;-73
2022/12/12 12:00:14;;;;;;;23.93;12.73;;;3.70;99.90;;;;;;5022363;28;20490;-73
2022/12/12 12:03:07;;;;;;;21.97;14.93;;;3.70;99.90;;;;;;5020097;28;20434;-73
2022/12/12 12:06:10;;;;;;;22.80;14.00;;;3.70;99.90;;;;;;5018817;28;20760;-74
2022/12/12 12:09:06;;;;;;;31.03;14.80;;;3.70;99.90;;;;;;5012084;28;20418;-74
2022/12/12 12:11:40;;;;;;;24.73;14.03;;;3.70;99.90;;;;;;5037994;28;20447;-75
2022/12/12 12:14:09;;;;;;;22.30;12.60;;;3.80;99.90;;;;;;5018743;28;20513;-72
2022/12/12 12:17:04;;;;;;;20.90;14.43;;;3.70;99.90;;;;;;5034311;28;20390;-73
2022/12/12 12:19:56;;;;;;;25.40;15.83;;;3.70;99.90;;;;;;5033937;28;20416;-73
2022/12/12 12:22:49;;;;;;;27.80;18.07;;;3.60;99.90;;;;;;5026847;28;20805;-72
2022/12/12 12:25:36;;;;;;;34.00;16.53;;;3.50;99.90;;;;;;5017066;28;20427;-73
2022/12/12 12:28:25;;;;;;;27.50;16.47;;;3.50;99.90;;;;;;5033004;28;20384;-74
2022/12/12 12:31:03;;;;;;;27.83;16.70;;;3.20;99.90;;;;;;5033420;28;20585;-73
2022/12/12 12:33:53;;;;;;;29.10;18.40;;;3.20;99.90;;;;;;5034048;28;20811;-76
2022/12/12 12:36:46;;;;;;;30.67;19.77;;;3.10;99.90;;;;;;5017249;28;20487;-73
2022/12/12 12:39:18;;;;;;;34.67;20.10;;;3.00;99.90;;;;;;5017787;28;20931;-73
2022/12/12 12:42:13;;;;;;;37.60;22.37;;;2.70;99.90;;;;;;5033515;28;20437;-72
2022/12/12 12:45:14;;;;;;;32.60;17.53;;;2.40;99.90;;;;;;5033062;28;20418;-73
2022/12/12 12:47:47;;;;;;;35.40;19.13;;;2.00;99.90;;;;;;5025286;28;20416;-72
2022/12/12 12:50:41;;;;;;;37.10;20.93;;;1.80;99.90;;;;;;5032984;28;20436;-72
2022/12/12 12:53:20;;;;;;;36.80;20.03;;;1.60;99.90;;;;;;5022417;28;20415;-72
2022/12/12 12:55:50;;;;;;;40.47;18.30;;;1.40;99.90;;;;;;5033100;28;20532;-72
2022/12/12 12:58:23;;;;;;;35.17;17.90;;;1.30;99.90;;;;;;5033471;28;20481;-73
2022/12/12 13:01:20;;;;;;;47.60;23.23;;;1.30;99.90;;;;;;5032912;28;20555;-71
2022/12/12 13:04:04;;;;;;;36.90;19.50;;;1.10;99.90;;;;;;5030771;28;20496;-73
2022/12/12 13:06:56;;;;;;;36.33;19.77;;;1.10;99.90;;;;;;5032950;28;20458;-72
2022/12/12 13:09:58;;;;;;;33.70;20.90;;;1.00;99.90;;;;;;4995714;28;20803;-72
2022/12/12 13:12:27;;;;;;;36.63;19.90;;;0.90;99.90;;;;;;4990617;28;20495;-72
2022/12/12 13:15:01;;;;;;;34.43;18.70;;;0.80;99.90;;;;;;5019050;28;20418;-72
2022/12/12 13:17:46;;;;;;;33.90;17.67;;;0.80;99.90;;;;;;5036704;28;20417;-72
2022/12/12 13:20:16;;;;;;;36.17;19.03;;;0.70;99.90;;;;;;5036874;28;20432;-73
2022/12/12 13:23:07;;;;;;;34.43;18.00;;;0.80;99.90;;;;;;5035683;28;20434;-71
2022/12/12 13:25:57;;;;;;;35.47;18.90;;;0.70;99.90;;;;;;5035225;28;20936;-72
2022/12/12 13:28:30;;;;;;;35.00;17.83;;;0.50;99.90;;;;;;5033415;28;20505;-73
2022/12/12 13:31:08;;;;;;;37.13;18.40;;;0.50;99.90;;;;;;5032794;28;21020;-73
2022/12/12 13:33:48;;;;;;;37.33;19.10;;;0.50;99.90;;;;;;5014928;28;20432;-72
2022/12/12 13:36:24;;;;;;;33.63;17.47;;;0.40;99.90;;;;;;5033029;28;20471;-72
2022/12/12 13:38:53;;;;;;;39.63;19.97;;;0.40;99.90;;;;;;5015226;28;20405;-72
2022/12/12 13:41:19;;;;;;;33.87;18.27;;;0.40;99.90;;;;;;5001538;28;20774;-72
2022/12/12 13:43:57;;;;;;;38.13;19.67;;;0.40;99.90;;;;;;4995332;28;20389;-72
2022/12/12 13:46:26;;;;;;;42.23;19.70;;;0.30;99.90;;;;;;4995504;28;20477;-72
2022/12/12 13:49:13;;;;;;;33.77;18.70;;;0.30;99.90;;;;;;5013024;28;20427;-72
2022/12/12 13:51:43;;;;;;;32.50;18.33;;;0.20;99.90;;;;;;4994904;28;20420;-73
2022/12/12 13:54:10;;;;;;;39.60;19.30;;;0.20;99.90;;;;;;4995744;28;20421;-72
2022/12/12 13:57:04;;;;;;;36.73;19.17;;;0.20;99.90;;;;;;5012576;28;20386;-72
2022/12/12 13:59:30;;;;;;;36.77;18.87;;;0.20;99.90;;;;;;4994632;28;20771;-72
2022/12/12 14:01:59;;;;;;;33.27;19.20;;;0.10;99.90;;;;;;5012956;28;20478;-72
2022/12/12 14:04:31;;;;;;;32.97;19.87;;;0.10;99.90;;;;;;4994290;28;20475;-71
2022/12/12 14:07:12;;;;;;;28.93;17.60;;;0.00;99.90;;;;;;5012251;28;20382;-71
2022/12/12 14:10:10;;;;;;;;;;;;;;;;;;;;;
2022/12/12 14:12:37;;;;;;;30.40;16.93;;;0.10;99.90;;;;;;5011121;28;20442;-72
2022/12/12 14:15:16;;;;;;;28.30;17.53;;;0.00;99.90;;;;;;5011001;28;20422;-72
2022/12/12 14:17:52;;;;;;;33.57;18.03;;;0.00;99.90;;;;;;5008049;28;20814;-72
2022/12/12 14:20:33;;;;;;;35.40;18.43;;;-0.10;99.90;;;;;;5032095;28;20438;-72
2022/12/12 14:23:11;;;;;;;31.77;16.60;;;-0.10;99.90;;;;;;5031658;28;20404;-71
2022/12/12 14:25:40;;;;;;;32.67;17.20;;;-0.20;99.90;;;;;;5031815;28;20494;-72
2022/12/12 14:28:16;;;;;;;28.67;16.20;;;-0.20;99.90;;;;;;5031971;28;20733;-71
2022/12/12 14:30:58;;;;;;;38.53;19.13;;;-0.20;99.90;;;;;;5013836;28;20799;-71
2022/12/12 14:33:42;;;;;;;28.73;17.00;;;-0.30;99.90;;;;;;5013541;28;20431;-72